sensor_id;sensor_type;location;lat;lon;timestamp;P1;durP1;ratioP1;P2;durP2;ratioP2
67164;SDS011;54093;50.014;19.984;2023-07-28T00:08:09;2.47;;;1.80;;
67164;SDS011;54093;50.014;19.984;2023-07-28T00:17:30;2.35;;;1.70;;
67164;SDS011;54093;50.014;19.984;2023-07-28T00:26:51;1.90;;;1.67;;
67164;SDS011;54093;50.014;19.984;2023-07-28T00:36:12;2.05;;;1.95;;
67164;SDS011;54093;50.014;19.984;2023-07-28T00:45:33;1.80;;;1.70;;
67164;SDS011;54093;50.014;19.984;2023-07-28T00:54:54;1.60;;;1.50;;
67164;SDS011;54093;50.014;19.984;2023-07-28T01:04:15;1.30;;;1.30;;
67164;SDS011;54093;50.014;19.984;2023-07-28T01:13:36;1.30;;;1.30;;
67164;SDS011;54093;50.014;19.984;2023-07-28T01:23:05;1.25;;;1.25;;
67164;SDS011;54093;50.014;19.984;2023-07-28T01:32:29;1.50;;;1.40;;
67164;SDS011;54093;50.014;19.984;2023-07-28T01:41:50;1.20;;;1.20;;
67164;SDS011;54093;50.014;19.984;2023-07-28T01:51:11;4.10;;;1.20;;
67164;SDS011;54093;50.014;19.984;2023-07-28T02:00:32;1.30;;;1.30;;
67164;SDS011;54093;50.014;19.984;2023-07-28T02:09:52;1.00;;;1.00;;
67164;SDS011;54093;50.014;19.984;2023-07-28T02:19:13;1.30;;;1.30;;
67164;SDS011;54093;50.014;19.984;2023-07-28T02:28:34;1.38;;;1.38;;
67164;SDS011;54093;50.014;19.984;2023-07-28T02:37:55;5.35;;;1.38;;
67164;SDS011;54093;50.014;19.984;2023-07-28T02:47:16;1.67;;;1.58;;
67164;SDS011;54093;50.014;19.984;2023-07-28T02:56:36;1.55;;;1.55;;
67164;SDS011;54093;50.014;19.984;2023-07-28T03:05:58;1.23;;;1.23;;
67164;SDS011;54093;50.014;19.984;2023-07-28T03:15:19;2.50;;;1.17;;
67164;SDS011;54093;50.014;19.984;2023-07-28T03:24:42;1.38;;;1.38;;
67164;SDS011;54093;50.014;19.984;2023-07-28T03:34:06;2.28;;;1.70;;
67164;SDS011;54093;50.014;19.984;2023-07-28T03:43:27;9.85;;;1.42;;
67164;SDS011;54093;50.014;19.984;2023-07-28T03:52:48;1.55;;;1.45;;
67164;SDS011;54093;50.014;19.984;2023-07-28T04:02:09;1.10;;;1.10;;
67164;SDS011;54093;50.014;19.984;2023-07-28T04:11:30;1.58;;;1.42;;
67164;SDS011;54093;50.014;19.984;2023-07-28T04:20:50;1.60;;;1.50;;
67164;SDS011;54093;50.014;19.984;2023-07-28T04:30:11;1.30;;;1.30;;
67164;SDS011;54093;50.014;19.984;2023-07-28T04:39:32;1.20;;;1.20;;
67164;SDS011;54093;50.014;19.984;2023-07-28T04:48:54;2.53;;;1.60;;
67164;SDS011;54093;50.014;19.984;2023-07-28T04:58:15;1.70;;;1.70;;
67164;SDS011;54093;50.014;19.984;2023-07-28T05:07:36;1.50;;;1.40;;
67164;SDS011;54093;50.014;19.984;2023-07-28T05:16:57;1.45;;;1.35;;
67164;SDS011;54093;50.014;19.984;2023-07-28T05:26:17;2.30;;;1.50;;
67164;SDS011;54093;50.014;19.984;2023-07-28T05:35:38;1.10;;;1.10;;
67164;SDS011;54093;50.014;19.984;2023-07-28T05:44:59;1.67;;;1.58;;
67164;SDS011;54093;50.014;19.984;2023-07-28T05:54:20;1.52;;;1.42;;
67164;SDS011;54093;50.014;19.984;2023-07-28T06:03:41;2.38;;;2.17;;
67164;SDS011;54093;50.014;19.984;2023-07-28T06:13:02;3.58;;;2.10;;
67164;SDS011;54093;50.014;19.984;2023-07-28T06:22:23;1.80;;;1.70;;
67164;SDS011;54093;50.014;19.984;2023-07-28T06:31:44;1.25;;;1.25;;
67164;SDS011;54093;50.014;19.984;2023-07-28T06:41:04;1.45;;;1.40;;
67164;SDS011;54093;50.014;19.984;2023-07-28T06:50:25;1.50;;;1.40;;
67164;SDS011;54093;50.014;19.984;2023-07-28T06:59:47;1.60;;;1.50;;
67164;SDS011;54093;50.014;19.984;2023-07-28T07:09:08;1.73;;;1.63;;
67164;SDS011;54093;50.014;19.984;2023-07-28T07:18:29;2.17;;;1.60;;
67164;SDS011;54093;50.014;19.984;2023-07-28T07:27:50;1.55;;;1.40;;
67164;SDS011;54093;50.014;19.984;2023-07-28T07:37:10;1.75;;;1.65;;
67164;SDS011;54093;50.014;19.984;2023-07-28T07:46:31;2.05;;;1.60;;
67164;SDS011;54093;50.014;19.984;2023-07-28T07:55:52;3.58;;;1.70;;
67164;SDS011;54093;50.014;19.984;2023-07-28T08:05:13;1.52;;;1.38;;
67164;SDS011;54093;50.014;19.984;2023-07-28T08:14:34;1.48;;;1.40;;
67164;SDS011;54093;50.014;19.984;2023-07-28T08:23:55;1.35;;;1.35;;
67164;SDS011;54093;50.014;19.984;2023-07-28T08:33:15;1.23;;;1.23;;
67164;SDS011;54093;50.014;19.984;2023-07-28T08:42:37;1.27;;;1.27;;
67164;SDS011;54093;50.014;19.984;2023-07-28T08:51:59;2.53;;;1.58;;
67164;SDS011;54093;50.014;19.984;2023-07-28T09:01:22;1.50;;;1.40;;
67164;SDS011;54093;50.014;19.984;2023-07-28T09:10:47;2.00;;;1.40;;
67164;SDS011;54093;50.014;19.984;2023-07-28T09:20:15;1.98;;;1.55;;
67164;SDS011;54093;50.014;19.984;2023-07-28T09:29:36;3.97;;;1.58;;
67164;SDS011;54093;50.014;19.984;2023-07-28T09:38:57;2.38;;;1.65;;
67164;SDS011;54093;50.014;19.984;2023-07-28T09:48:19;1.65;;;1.65;;
67164;SDS011;54093;50.014;19.984;2023-07-28T09:57:43;1.92;;;1.83;;
67164;SDS011;54093;50.014;19.984;2023-07-28T10:07:05;1.70;;;1.60;;
67164;SDS011;54093;50.014;19.984;2023-07-28T10:16:31;1.77;;;1.67;;
67164;SDS011;54093;50.014;19.984;2023-07-28T10:26:00;2.28;;;2.00;;
67164;SDS011;54093;50.014;19.984;2023-07-28T10:35:27;1.35;;;1.30;;
67164;SDS011;54093;50.014;19.984;2023-07-28T10:44:51;2.70;;;1.10;;
67164;SDS011;54093;50.014;19.984;2023-07-28T10:54:12;1.50;;;1.40;;
67164;SDS011;54093;50.014;19.984;2023-07-28T11:12:58;1.05;;;1.05;;
67164;SDS011;54093;50.014;19.984;2023-07-28T11:22:21;0.90;;;0.90;;
67164;SDS011;54093;50.014;19.984;2023-07-28T11:31:42;0.50;;;0.50;;
67164;SDS011;54093;50.014;19.984;2023-07-28T11:41:02;0.57;;;0.57;;
67164;SDS011;54093;50.014;19.984;2023-07-28T11:50:27;0.75;;;0.75;;
67164;SDS011;54093;50.014;19.984;2023-07-28T11:59:50;3.00;;;0.90;;
67164;SDS011;54093;50.014;19.984;2023-07-28T12:09:11;4.30;;;0.90;;
67164;SDS011;54093;50.014;19.984;2023-07-28T12:18:32;0.80;;;0.80;;
67164;SDS011;54093;50.014;19.984;2023-07-28T12:27:53;1.02;;;0.80;;
67164;SDS011;54093;50.014;19.984;2023-07-28T12:37:14;0.60;;;0.60;;
67164;SDS011;54093;50.014;19.984;2023-07-28T12:46:34;0.60;;;0.60;;
67164;SDS011;54093;50.014;19.984;2023-07-28T12:55:55;3.03;;;1.20;;
67164;SDS011;54093;50.014;19.984;2023-07-28T13:05:16;1.00;;;1.00;;
67164;SDS011;54093;50.014;19.984;2023-07-28T13:14:37;0.80;;;0.80;;
67164;SDS011;54093;50.014;19.984;2023-07-28T13:23:58;0.90;;;0.90;;
67164;SDS011;54093;50.014;19.984;2023-07-28T13:33:19;0.60;;;0.57;;
67164;SDS011;54093;50.014;19.984;2023-07-28T13:42:40;0.70;;;0.70;;
67164;SDS011;54093;50.014;19.984;2023-07-28T13:52:02;3.92;;;0.77;;
67164;SDS011;54093;50.014;19.984;2023-07-28T14:01:23;1.10;;;0.52;;
67164;SDS011;54093;50.014;19.984;2023-07-28T14:10:44;2.22;;;0.52;;
67164;SDS011;54093;50.014;19.984;2023-07-28T14:20:06;2.83;;;0.98;;
67164;SDS011;54093;50.014;19.984;2023-07-28T14:29:29;4.95;;;0.80;;
67164;SDS011;54093;50.014;19.984;2023-07-28T14:38:50;1.85;;;0.80;;
67164;SDS011;54093;50.014;19.984;2023-07-28T14:48:11;1.58;;;0.90;;
67164;SDS011;54093;50.014;19.984;2023-07-28T14:57:32;0.90;;;0.90;;
67164;SDS011;54093;50.014;19.984;2023-07-28T15:06:53;0.50;;;0.50;;
67164;SDS011;54093;50.014;19.984;2023-07-28T15:16:13;0.93;;;0.93;;
67164;SDS011;54093;50.014;19.984;2023-07-28T15:25:34;0.70;;;0.70;;
67164;SDS011;54093;50.014;19.984;2023-07-28T15:34:55;1.92;;;0.98;;
67164;SDS011;54093;50.014;19.984;2023-07-28T15:44:16;0.68;;;0.68;;
67164;SDS011;54093;50.014;19.984;2023-07-28T15:53:37;0.90;;;0.90;;
67164;SDS011;54093;50.014;19.984;2023-07-28T16:02:58;0.80;;;0.80;;
67164;SDS011;54093;50.014;19.984;2023-07-28T16:12:19;1.10;;;1.10;;
67164;SDS011;54093;50.014;19.984;2023-07-28T16:21:40;1.15;;;1.15;;
67164;SDS011;54093;50.014;19.984;2023-07-28T16:31:01;1.50;;;1.40;;
67164;SDS011;54093;50.014;19.984;2023-07-28T16:40:22;1.25;;;1.25;;
67164;SDS011;54093;50.014;19.984;2023-07-28T16:49:42;1.90;;;1.80;;
67164;SDS011;54093;50.014;19.984;2023-07-28T16:59:03;3.67;;;3.47;;
67164;SDS011;54093;50.014;19.984;2023-07-28T17:08:24;6.25;;;5.72;;
67164;SDS011;54093;50.014;19.984;2023-07-28T17:17:45;2.42;;;2.33;;
67164;SDS011;54093;50.014;19.984;2023-07-28T17:27:06;2.40;;;2.30;;
67164;SDS011;54093;50.014;19.984;2023-07-28T17:36:27;2.40;;;2.20;;
67164;SDS011;54093;50.014;19.984;2023-07-28T17:45:49;2.25;;;1.88;;
67164;SDS011;54093;50.014;19.984;2023-07-28T17:55:10;1.83;;;1.73;;
67164;SDS011;54093;50.014;19.984;2023-07-28T18:04:31;2.42;;;1.88;;
67164;SDS011;54093;50.014;19.984;2023-07-28T18:13:52;1.85;;;1.85;;
67164;SDS011;54093;50.014;19.984;2023-07-28T18:23:13;1.48;;;1.42;;
67164;SDS011;54093;50.014;19.984;2023-07-28T18:32:34;1.90;;;1.80;;
67164;SDS011;54093;50.014;19.984;2023-07-28T18:41:55;1.70;;;1.60;;
67164;SDS011;54093;50.014;19.984;2023-07-28T18:51:16;1.40;;;1.40;;
67164;SDS011;54093;50.014;19.984;2023-07-28T19:00:37;2.42;;;2.33;;
67164;SDS011;54093;50.014;19.984;2023-07-28T19:09:58;2.92;;;2.22;;
67164;SDS011;54093;50.014;19.984;2023-07-28T19:19:19;2.30;;;2.20;;
67164;SDS011;54093;50.014;19.984;2023-07-28T19:28:40;2.15;;;2.05;;
67164;SDS011;54093;50.014;19.984;2023-07-28T19:38:01;2.38;;;2.28;;
67164;SDS011;54093;50.014;19.984;2023-07-28T19:47:22;2.00;;;1.90;;
67164;SDS011;54093;50.014;19.984;2023-07-28T19:56:46;2.13;;;2.03;;
67164;SDS011;54093;50.014;19.984;2023-07-28T20:06:29;2.13;;;2.03;;
67164;SDS011;54093;50.014;19.984;2023-07-28T20:15:55;2.55;;;2.35;;
67164;SDS011;54093;50.014;19.984;2023-07-28T20:25:22;2.40;;;2.30;;
67164;SDS011;54093;50.014;19.984;2023-07-28T20:34:43;9.93;;;3.25;;
67164;SDS011;54093;50.014;19.984;2023-07-28T20:44:04;2.13;;;2.00;;
67164;SDS011;54093;50.014;19.984;2023-07-28T20:53:25;2.40;;;2.30;;
67164;SDS011;54093;50.014;19.984;2023-07-28T21:02:48;2.10;;;2.00;;
67164;SDS011;54093;50.014;19.984;2023-07-28T21:12:09;1.90;;;1.80;;
67164;SDS011;54093;50.014;19.984;2023-07-28T21:21:30;2.00;;;1.90;;
67164;SDS011;54093;50.014;19.984;2023-07-28T21:30:51;6.57;;;2.53;;
67164;SDS011;54093;50.014;19.984;2023-07-28T21:40:11;4.47;;;2.30;;
67164;SDS011;54093;50.014;19.984;2023-07-28T21:49:33;2.40;;;2.30;;
67164;SDS011;54093;50.014;19.984;2023-07-28T21:58:54;3.05;;;2.50;;
67164;SDS011;54093;50.014;19.984;2023-07-28T22:18:20;2.03;;;1.90;;
67164;SDS011;54093;50.014;19.984;2023-07-28T22:27:41;2.78;;;1.55;;
67164;SDS011;54093;50.014;19.984;2023-07-28T22:37:02;1.98;;;1.88;;
67164;SDS011;54093;50.014;19.984;2023-07-28T22:46:23;1.90;;;1.77;;
67164;SDS011;54093;50.014;19.984;2023-07-28T22:56:09;1.70;;;1.60;;
67164;SDS011;54093;50.014;19.984;2023-07-28T23:05:30;2.53;;;2.33;;
67164;SDS011;54093;50.014;19.984;2023-07-28T23:14:51;2.38;;;2.28;;
67164;SDS011;54093;50.014;19.984;2023-07-28T23:24:12;2.45;;;1.65;;
67164;SDS011;54093;50.014;19.984;2023-07-28T23:33:33;2.30;;;2.20;;
67164;SDS011;54093;50.014;19.984;2023-07-28T23:42:54;1.90;;;1.80;;
67164;SDS011;54093;50.014;19.984;2023-07-28T23:52:15;2.97;;;1.60;;
